Time;durP1;ratioP1;P1;durP2;ratioP2;P2;SDS_P1;SDS_P2;PMS_P1;PMS_P2;Temp;Humidity;BMP_temperature;BMP_pressure;BME280_temperature;BME280_humidity;BME280_pressure;Samples;Min_cycle;Max_cycle;Signal;HPM_P1;HPM_P2
2024/04/10 00:00:54;;;;;;;13.90;6.90;;;11.80;99.90;;;;;;5435055;26;20003;-75
2024/04/10 00:03:22;;;;;;;13.77;6.70;;;11.80;99.90;;;;;;5424756;26;20003;-75
2024/04/10 00:06:03;;;;;;;13.35;7.40;;;11.70;99.90;;;;;;5433315;26;20020;-75
2024/04/10 00:08:30;;;;;;;15.65;6.78;;;11.70;99.90;;;;;;5416702;26;20014;-75
2024/04/10 00:10:55;;;;;;;11.70;6.93;;;11.60;99.90;;;;;;5416455;26;20318;-75
2024/04/10 00:13:21;;;;;;;11.05;6.80;;;11.60;99.90;;;;;;5412680;26;20002;-75
2024/04/10 00:15:57;;;;;;;13.50;6.63;;;11.60;99.90;;;;;;5396499;26;20012;-74
2024/04/10 00:18:23;;;;;;;12.70;7.25;;;11.50;99.90;;;;;;5405550;26;20368;-75
2024/04/10 00:20:48;;;;;;;11.70;6.82;;;11.50;99.90;;;;;;5397568;26;20017;-74
2024/04/10 00:23:14;;;;;;;13.65;7.20;;;11.40;99.90;;;;;;5395691;26;20016;-75
2024/04/10 00:25:40;;;;;;;11.40;6.68;;;11.40;99.90;;;;;;5433613;26;20405;-75
2024/04/10 00:28:05;;;;;;;11.00;6.53;;;11.40;99.90;;;;;;5381292;26;20004;-74
2024/04/10 00:30:31;;;;;;;14.25;7.30;;;11.40;99.90;;;;;;5409069;26;20016;-75
2024/04/10 00:32:57;;;;;;;13.23;7.50;;;11.40;99.90;;;;;;5381001;26;20004;-75
2024/04/10 00:35:23;;;;;;;13.63;7.07;;;11.40;99.90;;;;;;5389228;26;20013;-74
2024/04/10 00:37:48;;;;;;;9.02;6.88;;;11.40;99.90;;;;;;5346360;26;20013;-75
2024/04/10 00:40:14;;;;;;;13.95;7.38;;;11.40;99.90;;;;;;5347550;26;20032;-74
2024/04/10 00:42:40;;;;;;;9.70;6.53;;;11.40;99.90;;;;;;5354826;26;20017;-75
2024/04/10 00:45:05;;;;;;;11.25;7.57;;;11.40;99.90;;;;;;5381241;26;20005;-75
2024/04/10 00:47:31;;;;;;;13.40;7.30;;;11.30;99.90;;;;;;5364777;26;20016;-74
2024/04/10 00:49:57;;;;;;;15.82;7.30;;;11.30;99.90;;;;;;5376526;26;20437;-75
2024/04/10 00:52:23;;;;;;;12.45;7.60;;;11.30;99.90;;;;;;5367195;26;20005;-74
2024/04/10 00:54:49;;;;;;;16.08;7.00;;;11.40;99.90;;;;;;5373940;26;20399;-75
2024/04/10 00:57:15;;;;;;;15.82;7.57;;;11.40;99.90;;;;;;5365137;26;20057;-75
2024/04/10 00:59:40;;;;;;;12.77;7.90;;;11.40;99.90;;;;;;5377263;26;20085;-74
2024/04/10 01:02:07;;;;;;;13.77;7.85;;;11.40;99.90;;;;;;5387505;26;20466;-74
2024/04/10 01:04:33;;;;;;;12.75;8.10;;;11.40;99.90;;;;;;5376933;26;20046;-74
2024/04/10 01:06:59;;;;;;;12.02;8.18;;;11.40;99.90;;;;;;5373562;26;20005;-74
2024/04/10 01:09:24;;;;;;;10.82;6.97;;;11.40;99.90;;;;;;5377675;26;20074;-74
2024/04/10 01:11:50;;;;;;;13.98;7.72;;;11.40;99.90;;;;;;5371970;26;20023;-75
2024/04/10 01:14:16;;;;;;;15.32;8.65;;;11.50;99.90;;;;;;5369471;26;20088;-74
2024/04/10 01:16:42;;;;;;;12.23;7.40;;;11.50;99.90;;;;;;5359296;26;20005;-74
2024/04/10 01:19:08;;;;;;;12.02;7.80;;;11.50;99.90;;;;;;5375143;26;20008;-74
2024/04/10 01:21:34;;;;;;;15.00;7.53;;;11.50;99.90;;;;;;5374149;26;20000;-74
2024/04/10 01:24:00;;;;;;;13.98;7.47;;;11.60;99.90;;;;;;5374508;26;20081;-75
2024/04/10 01:26:25;;;;;;;11.10;7.13;;;11.50;99.90;;;;;;5397196;26;20023;-75
2024/04/10 01:28:51;;;;;;;16.73;8.02;;;11.60;99.90;;;;;;5380527;26;20007;-74
2024/04/10 01:31:17;;;;;;;15.82;7.30;;;11.70;99.90;;;;;;5381030;26;20004;-74
2024/04/10 01:33:42;;;;;;;15.20;7.60;;;11.70;99.90;;;;;;5408185;26;20057;-75
2024/04/10 01:36:08;;;;;;;13.82;7.05;;;11.80;99.90;;;;;;5397633;26;20016;-75
2024/04/10 01:38:35;;;;;;;12.43;7.13;;;11.80;99.90;;;;;;5378361;26;20032;-74
2024/04/10 01:41:00;;;;;;;12.98;7.63;;;11.90;99.90;;;;;;5396640;26;20011;-74
2024/04/10 01:43:26;;;;;;;18.75;8.90;;;12.00;99.90;;;;;;5362845;26;20000;-75
2024/04/10 01:45:52;;;;;;;24.88;9.40;;;12.00;99.90;;;;;;5396659;26;20003;-75
2024/04/10 01:48:17;;;;;;;19.48;8.45;;;12.10;99.90;;;;;;5380340;26;20016;-75
2024/04/10 01:50:44;;;;;;;20.38;8.93;;;12.20;99.90;;;;;;5379022;26;20004;-75
2024/04/10 01:53:10;;;;;;;21.42;7.97;;;12.30;99.90;;;;;;5361678;26;20426;-75
2024/04/10 01:55:36;;;;;;;13.52;7.53;;;12.40;99.90;;;;;;5380495;26;20081;-75
2024/04/10 01:58:01;;;;;;;34.65;8.63;;;12.50;99.90;;;;;;5361796;26;20013;-75
2024/04/10 02:00:27;;;;;;;16.73;8.00;;;12.50;99.90;;;;;;5361756;26;20012;-75
2024/04/10 02:02:53;;;;;;;16.02;7.18;;;12.50;99.90;;;;;;5377935;26;20001;-75
2024/04/10 02:05:18;;;;;;;13.93;6.97;;;12.50;99.90;;;;;;5370998;26;20031;-75
2024/04/10 02:07:44;;;;;;;13.93;6.95;;;12.60;99.90;;;;;;5380204;26;20012;-75
2024/04/10 02:10:10;;;;;;;15.07;7.05;;;12.60;99.90;;;;;;5379040;26;20023;-75
2024/04/10 02:12:35;;;;;;;17.52;7.20;;;12.60;99.90;;;;;;5379528;26;20008;-75
2024/04/10 02:15:02;;;;;;;20.33;7.53;;;12.60;99.90;;;;;;5398553;26;20000;-75
2024/04/10 02:17:27;;;;;;;17.20;7.22;;;12.60;99.90;;;;;;5431667;26;19999;-75
2024/04/10 02:19:53;;;;;;;16.77;6.40;;;12.70;99.90;;;;;;5444666;26;19995;-75
2024/04/10 02:22:18;;;;;;;15.75;7.63;;;12.70;99.90;;;;;;5371363;26;20314;-75
2024/04/10 02:24:44;;;;;;;18.90;7.95;;;12.70;99.90;;;;;;5380398;26;20458;-75
2024/04/10 02:27:10;;;;;;;11.13;6.95;;;12.70;99.90;;;;;;5412245;26;20003;-75
2024/04/10 02:29:36;;;;;;;18.08;6.53;;;12.70;99.90;;;;;;5415225;26;20053;-76
2024/04/10 02:32:01;;;;;;;15.75;6.43;;;12.70;99.90;;;;;;5378480;26;20918;-75
2024/04/10 02:34:27;;;;;;;18.45;6.40;;;12.80;99.90;;;;;;5383942;26;20445;-74
2024/04/10 02:36:53;;;;;;;17.38;7.30;;;12.80;99.90;;;;;;5381649;26;20016;-75
2024/04/10 02:39:19;;;;;;;14.30;6.85;;;12.90;99.90;;;;;;5415138;26;20478;-75
2024/04/10 02:41:44;;;;;;;19.42;7.75;;;13.00;99.90;;;;;;5402822;26;20003;-76
2024/04/10 02:44:10;;;;;;;18.60;6.70;;;13.20;99.90;;;;;;5376201;26;20008;-75
2024/04/10 02:46:35;;;;;;;19.08;6.15;;;13.30;99.90;;;;;;5380561;26;20396;-74
2024/04/10 02:49:01;;;;;;;12.10;6.40;;;13.50;99.90;;;;;;5356726;26;20438;-75
2024/04/10 02:51:27;;;;;;;18.50;6.15;;;13.70;99.90;;;;;;5357318;26;20393;-74
2024/04/10 02:53:52;;;;;;;20.30;6.43;;;13.90;99.90;;;;;;5405809;26;20444;-75
2024/04/10 02:56:20;;;;;;;25.38;7.22;;;14.00;99.90;;;;;;5416452;26;20012;-75
2024/04/10 02:58:46;;;;;;;19.60;7.38;;;14.10;99.90;;;;;;5401607;26;20089;-75
2024/04/10 03:01:12;;;;;;;12.50;7.07;;;14.10;99.90;;;;;;5380076;26;20047;-76
2024/04/10 03:03:38;;;;;;;15.52;6.97;;;14.10;99.90;;;;;;5379150;26;20012;-75
2024/04/10 03:06:04;;;;;;;18.63;8.10;;;14.10;99.90;;;;;;5380115;26;20004;-75
2024/04/10 03:08:35;;;;;;;15.30;6.03;;;14.20;99.90;;;;;;5408921;26;20004;-75
2024/04/10 03:11:01;;;;;;;12.88;6.72;;;14.20;99.90;;;;;;5408012;26;19995;-75
2024/04/10 03:13:27;;;;;;;11.63;5.82;;;14.20;99.90;;;;;;5393472;26;20004;-75
2024/04/10 03:15:52;;;;;;;19.27;6.95;;;14.20;99.90;;;;;;5412198;26;20004;-75
2024/04/10 03:18:18;;;;;;;11.88;6.82;;;14.20;99.90;;;;;;5407684;26;20024;-74
2024/04/10 03:20:44;;;;;;;16.27;6.25;;;14.30;99.90;;;;;;5407444;26;20018;-75
2024/04/10 03:23:10;;;;;;;13.60;6.68;;;14.30;99.90;;;;;;5393318;26;20503;-75
2024/04/10 03:25:36;;;;;;;13.40;5.85;;;14.30;99.90;;;;;;5383667;26;20330;-75
2024/04/10 03:28:02;;;;;;;10.40;6.15;;;14.30;99.90;;;;;;5381153;26;20004;-75
2024/04/10 03:30:28;;;;;;;15.27;6.63;;;14.30;99.90;;;;;;5411495;26;20003;-75
2024/04/10 03:32:54;;;;;;;14.35;6.60;;;14.30;99.90;;;;;;5417441;26;20052;-76
2024/04/10 03:35:19;;;;;;;13.70;5.80;;;14.40;99.90;;;;;;5388110;26;20015;-75
2024/04/10 03:37:46;;;;;;;12.65;6.20;;;14.30;99.90;;;;;;5428567;26;20010;-75
2024/04/10 03:40:12;;;;;;;17.38;6.82;;;14.30;99.90;;;;;;5443796;26;20018;-75
2024/04/10 03:42:38;;;;;;;13.35;6.07;;;14.30;99.90;;;;;;5413282;26;20012;-75
2024/04/10 03:45:04;;;;;;;12.27;6.63;;;14.30;99.90;;;;;;5380845;26;20005;-75
2024/04/10 03:47:30;;;;;;;15.20;5.93;;;14.30;99.90;;;;;;5382281;26;20084;-75
2024/04/10 03:49:56;;;;;;;16.17;5.70;;;14.20;99.90;;;;;;5410209;26;20011;-74
2024/04/10 03:52:22;;;;;;;11.73;6.32;;;14.20;99.90;;;;;;5401955;26;20000;-75
2024/04/10 03:54:48;;;;;;;11.68;6.15;;;14.20;99.90;;;;;;5385470;26;20008;-75
2024/04/10 03:57:13;;;;;;;12.05;6.80;;;14.20;99.90;;;;;;5392619;26;20015;-76
2024/04/10 03:59:39;;;;;;;15.25;6.90;;;14.20;99.90;;;;;;5417542;26;20011;-76
2024/04/10 04:02:05;;;;;;;15.38;6.90;;;14.20;99.90;;;;;;5407821;26;20011;-75
2024/04/10 04:04:30;;;;;;;18.50;6.97;;;14.20;99.90;;;;;;5380315;26;20000;-75
2024/04/10 04:06:56;;;;;;;10.18;6.35;;;14.20;99.90;;;;;;5381020;26;20008;-75
2024/04/10 04:09:22;;;;;;;10.05;6.95;;;14.30;99.90;;;;;;5375989;26;20005;-75
2024/04/10 04:11:48;;;;;;;19.48;8.05;;;14.30;99.90;;;;;;5382249;26;20365;-75
2024/04/10 04:14:14;;;;;;;15.77;7.25;;;14.30;99.90;;;;;;5372853;26;20009;-76
2024/04/10 04:16:39;;;;;;;18.58;7.38;;;14.30;99.90;;;;;;5376989;26;20044;-75
2024/04/10 04:19:05;;;;;;;13.50;6.90;;;14.40;99.90;;;;;;5377629;26;20531;-75
2024/04/10 04:21:31;;;;;;;17.98;8.75;;;14.40;99.90;;;;;;5407737;26;20003;-75
2024/04/10 04:23:58;;;;;;;23.73;9.02;;;14.40;99.90;;;;;;5416031;26;20019;-75
2024/04/10 04:26:24;;;;;;;14.75;7.93;;;14.50;99.90;;;;;;5415821;26;20446;-75
2024/04/10 04:28:51;;;;;;;13.13;7.43;;;14.50;99.90;;;;;;5416099;26;20015;-75
2024/04/10 04:31:17;;;;;;;12.40;8.60;;;14.50;99.90;;;;;;5418446;26;20000;-75
2024/04/10 04:33:43;;;;;;;14.18;7.97;;;14.50;99.90;;;;;;5415913;26;20476;-75
2024/04/10 04:36:10;;;;;;;18.30;8.57;;;14.50;99.90;;;;;;5417719;26;20007;-75
2024/04/10 04:38:39;;;;;;;17.25;9.27;;;14.50;99.90;;;;;;5417977;26;20004;-75
2024/04/10 04:41:04;;;;;;;12.07;8.30;;;14.60;99.90;;;;;;5417112;26;20014;-75
2024/04/10 04:43:30;;;;;;;18.27;11.38;;;14.60;99.90;;;;;;5417736;26;19995;-75
2024/04/10 04:45:56;;;;;;;21.20;11.88;;;14.60;99.90;;;;;;5394738;26;20454;-75
2024/04/10 04:48:21;;;;;;;21.42;12.38;;;14.60;99.90;;;;;;5358524;26;20001;-75
2024/04/10 04:50:48;;;;;;;16.05;11.55;;;14.60;99.90;;;;;;5384710;26;19999;-75
2024/04/10 04:53:15;;;;;;;20.80;14.68;;;14.60;99.90;;;;;;5414097;26;20007;-75
2024/04/10 04:55:41;;;;;;;24.08;15.43;;;14.60;99.90;;;;;;5411824;26;20011;-75
2024/04/10 04:58:08;;;;;;;22.77;16.40;;;14.60;99.90;;;;;;5370632;26;20326;-76
2024/04/10 05:00:33;;;;;;;21.13;14.60;;;14.60;99.90;;;;;;5376921;26;20640;-75
2024/04/10 05:03:00;;;;;;;23.23;14.60;;;14.60;99.90;;;;;;5390979;26;20011;-75
2024/04/10 05:05:26;;;;;;;24.20;15.82;;;14.60;99.90;;;;;;5401630;26;20081;-73
2024/04/10 05:07:52;;;;;;;22.88;14.20;;;14.60;99.90;;;;;;5402149;26;20035;-76
2024/04/10 05:10:19;;;;;;;21.77;14.07;;;14.50;99.90;;;;;;5403417;26;20006;-75
2024/04/10 05:12:45;;;;;;;20.75;13.30;;;14.40;99.90;;;;;;5398465;26;20008;-74
2024/04/10 05:15:13;;;;;;;22.50;12.18;;;14.30;99.90;;;;;;5392280;26;20004;-75
2024/04/10 05:17:43;;;;;;;16.90;11.70;;;14.20;99.90;;;;;;5374492;26;20008;-75
2024/04/10 05:20:12;;;;;;;14.00;10.55;;;14.10;99.90;;;;;;5398253;26;20004;-75
2024/04/10 05:22:39;;;;;;;23.25;10.77;;;14.00;99.90;;;;;;5394812;26;20078;-74
2024/04/10 05:25:05;;;;;;;13.73;9.10;;;13.90;99.90;;;;;;5401913;26;20008;-75
2024/04/10 05:27:32;;;;;;;15.48;8.60;;;13.80;99.90;;;;;;5399020;26;20004;-75
2024/04/10 05:30:00;;;;;;;15.30;7.40;;;13.70;99.90;;;;;;5382018;26;20016;-76
2024/04/10 05:32:29;;;;;;;15.07;7.70;;;13.70;99.90;;;;;;5386598;26;20012;-74
2024/04/10 05:34:55;;;;;;;12.50;6.85;;;13.60;99.90;;;;;;5377010;26;20034;-74
2024/04/10 05:37:22;;;;;;;11.75;6.78;;;13.50;99.90;;;;;;5364439;26;20007;-75
2024/04/10 05:40:16;;;;;;;17.58;6.85;;;13.40;99.90;;;;;;5370042;26;20001;-75
2024/04/10 05:42:43;;;;;;;10.77;6.03;;;13.40;99.90;;;;;;5394220;26;20004;-75
2024/04/10 05:45:11;;;;;;;9.70;6.40;;;13.30;99.90;;;;;;5416738;26;20023;-74
2024/04/10 05:47:41;;;;;;;13.45;5.40;;;13.30;99.90;;;;;;5398712;26;20019;-74
2024/04/10 05:50:10;;;;;;;14.77;5.68;;;13.10;99.90;;;;;;5413264;26;20015;-76
2024/04/10 05:52:36;;;;;;;15.55;5.72;;;13.10;99.90;;;;;;5387926;26;19995;-76
2024/04/10 05:55:03;;;;;;;7.72;5.07;;;13.00;99.90;;;;;;5382110;26;20076;-75
2024/04/10 05:59:05;;;;;;;13.77;6.28;;;12.90;99.90;;;;;;5499021;25;20334;-75
2024/04/10 06:01:31;;;;;;;12.43;6.70;;;12.80;99.90;;;;;;5423744;26;19996;-74
2024/04/10 06:03:57;;;;;;;10.32;6.22;;;12.70;99.90;;;;;;5398356;26;20007;-75
2024/04/10 06:06:23;;;;;;;11.82;6.10;;;12.70;99.90;;;;;;5391210;26;20005;-76
2024/04/10 06:08:48;;;;;;;9.35;5.30;;;12.60;99.90;;;;;;5396897;26;20008;-75
2024/04/10 06:11:14;;;;;;;10.73;5.53;;;12.60;99.90;;;;;;5398306;26;20008;-76
2024/04/10 06:13:40;;;;;;;13.18;4.85;;;12.60;99.90;;;;;;5397016;26;19996;-75
2024/04/10 06:16:06;;;;;;;14.55;5.43;;;12.40;99.90;;;;;;5392578;26;20026;-75
2024/04/10 06:18:32;;;;;;;12.40;6.07;;;12.30;99.90;;;;;;5416095;26;20007;-75
2024/04/10 06:21:01;;;;;;;10.85;6.57;;;12.20;99.90;;;;;;5394054;26;20023;-76
2024/04/10 06:23:31;;;;;;;14.57;6.43;;;12.10;99.90;;;;;;5394853;26;20019;-76
2024/04/10 06:25:58;;;;;;;12.40;6.13;;;12.00;99.90;;;;;;5395506;26;20077;-76
2024/04/10 06:28:25;;;;;;;15.77;6.00;;;11.80;99.90;;;;;;5394072;26;20018;-76
2024/04/10 06:31:01;;;;;;;14.70;7.80;;;11.70;99.90;;;;;;5392534;26;20012;-76
2024/04/10 06:33:27;;;;;;;16.05;7.60;;;11.60;99.90;;;;;;5395351;26;20071;-76
2024/04/10 06:35:53;;;;;;;15.93;7.15;;;11.60;99.90;;;;;;5394450;26;20004;-76
2024/04/10 06:38:19;;;;;;;10.38;6.38;;;11.50;99.90;;;;;;5391942;26;20023;-76
2024/04/10 06:41:01;;;;;;;17.52;7.70;;;11.50;99.90;;;;;;5392455;26;20449;-76
2024/04/10 06:43:27;;;;;;;9.45;6.63;;;11.40;99.90;;;;;;5358994;26;20024;-76
2024/04/10 06:46:02;;;;;;;20.38;9.38;;;11.40;99.90;;;;;;5390324;26;20007;-76
2024/04/10 06:48:28;;;;;;;14.80;6.78;;;11.40;99.90;;;;;;5365667;26;20009;-76
2024/04/10 06:50:59;;;;;;;14.18;6.85;;;11.30;99.90;;;;;;5375758;26;20023;-76
2024/04/10 06:53:25;;;;;;;13.63;6.55;;;11.40;99.90;;;;;;5387333;26;20000;-76
2024/04/10 06:55:58;;;;;;;15.23;6.40;;;11.20;99.90;;;;;;5361645;26;20389;-76
2024/04/10 06:58:25;;;;;;;12.00;6.32;;;11.40;99.90;;;;;;5398171;26;20003;-76
2024/04/10 07:01:04;;;;;;;13.68;6.75;;;11.30;99.90;;;;;;5398265;26;20005;-76
2024/04/10 07:03:40;;;;;;;13.07;5.47;;;11.30;99.90;;;;;;5396422;26;20077;-76
2024/04/10 07:06:06;;;;;;;12.48;6.13;;;11.30;99.90;;;;;;5379431;26;20005;-76
2024/04/10 07:08:37;;;;;;;15.38;5.55;;;11.30;99.90;;;;;;5356511;26;20343;-76
2024/04/10 07:11:04;;;;;;;6.97;4.80;;;11.30;99.90;;;;;;5348418;26;20001;-76
2024/04/10 07:16:16;;;;;;;10.00;5.03;;;11.20;99.90;;;;;;5318999;26;20098;-76
2024/04/10 07:18:43;;;;;;;9.07;5.47;;;11.30;99.90;;;;;;5372702;26;20019;-76
2024/04/10 07:21:13;;;;;;;7.20;5.03;;;11.30;99.90;;;;;;5383186;26;20441;-76
2024/04/10 07:23:40;;;;;;;9.07;5.25;;;11.30;99.90;;;;;;5381315;26;20036;-77
2024/04/10 07:26:13;;;;;;;11.07;4.57;;;11.40;99.90;;;;;;5383202;26;19996;-76
2024/04/10 07:28:47;;;;;;;10.25;5.15;;;11.40;99.90;;;;;;5383547;26;20028;-77
2024/04/10 07:31:22;;;;;;;7.05;4.78;;;11.40;99.90;;;;;;5346319;26;20009;-77
2024/04/10 07:33:49;;;;;;;10.20;5.38;;;11.40;99.90;;;;;;5343439;26;20470;-76
2024/04/10 07:36:20;;;;;;;7.55;4.53;;;11.40;99.90;;;;;;5348027;26;20001;-76
2024/04/10 07:38:46;;;;;;;10.50;4.80;;;11.30;99.90;;;;;;5345737;26;20327;-76
2024/04/10 07:41:13;;;;;;;9.23;4.88;;;11.40;99.90;;;;;;5346262;26;20019;-77
2024/04/10 07:43:39;;;;;;;11.07;4.80;;;11.50;99.90;;;;;;5347956;26;19997;-76
2024/04/10 07:46:09;;;;;;;7.22;4.18;;;11.50;99.90;;;;;;5345983;26;20016;-76
2024/04/10 07:48:35;;;;;;;10.27;4.85;;;11.50;99.30;;;;;;5345191;26;20433;-76
2024/04/10 07:51:02;;;;;;;8.50;4.55;;;11.50;97.30;;;;;;5345311;26;20009;-76
2024/04/10 07:53:28;;;;;;;8.65;5.13;;;11.50;96.60;;;;;;5356980;26;20023;-76
2024/04/10 07:55:54;;;;;;;7.28;5.22;;;11.60;97.10;;;;;;5381972;26;20077;-76
2024/04/10 07:58:19;;;;;;;8.80;4.85;;;11.70;96.30;;;;;;5382450;26;20450;-76
2024/04/10 08:00:45;;;;;;;7.95;4.35;;;11.70;94.50;;;;;;5354566;26;20005;-76
2024/04/10 08:03:10;;;;;;;13.45;5.50;;;11.70;93.40;;;;;;5347211;26;20020;-76
2024/04/10 08:05:38;;;;;;;10.07;6.13;;;11.70;93.80;;;;;;5347628;26;20446;-77
2024/04/10 08:08:03;;;;;;;5.15;4.00;;;11.60;93.10;;;;;;5345301;26;20016;-76
2024/04/10 08:10:29;;;;;;;6.45;4.32;;;11.70;92.90;;;;;;5346404;26;20000;-76
2024/04/10 08:12:55;;;;;;;10.27;4.35;;;11.80;92.70;;;;;;5344886;26;20074;-77
2024/04/10 08:15:22;;;;;;;10.07;4.95;;;11.80;91.80;;;;;;5330763;26;20005;-77
2024/04/10 08:17:48;;;;;;;6.13;4.50;;;11.80;92.40;;;;;;5325946;26;20008;-77
2024/04/10 08:20:14;;;;;;;12.90;5.25;;;11.80;90.60;;;;;;5353508;26;20012;-76
2024/04/10 08:22:42;;;;;;;11.32;5.70;;;11.70;90.80;;;;;;5382173;26;20000;-76
2024/04/10 08:25:08;;;;;;;15.65;5.95;;;11.60;91.10;;;;;;5382345;26;20008;-76
2024/04/10 08:27:34;;;;;;;13.05;5.82;;;11.50;92.60;;;;;;5355651;26;20019;-76
2024/04/10 08:30:00;;;;;;;8.57;5.35;;;11.60;92.20;;;;;;5345566;26;20009;-76
2024/04/10 08:32:25;;;;;;;11.13;5.75;;;11.60;91.80;;;;;;5344926;26;20024;-76
2024/04/10 08:34:51;;;;;;;11.02;5.05;;;11.60;91.70;;;;;;5347060;26;20001;-77
2024/04/10 08:37:17;;;;;;;10.55;4.72;;;11.60;92.20;;;;;;5345168;26;20005;-76
2024/04/10 08:39:48;;;;;;;10.90;5.38;;;11.70;90.00;;;;;;5347150;26;20088;-76
2024/04/10 08:42:19;;;;;;;13.18;4.22;;;11.70;90.50;;;;;;5346704;26;20009;-77
2024/04/10 08:44:45;;;;;;;9.10;4.47;;;11.80;89.10;;;;;;5345144;26;20023;-76
2024/04/10 08:47:12;;;;;;;12.25;5.00;;;11.90;89.20;;;;;;5326876;26;20078;-76
2024/04/10 08:49:39;;;;;;;8.88;4.60;;;11.90;88.20;;;;;;5346620;26;20071;-76
2024/04/10 08:52:08;;;;;;;6.72;3.85;;;12.00;88.50;;;;;;5346178;26;20334;-76
2024/04/10 08:54:37;;;;;;;8.90;4.18;;;12.00;86.50;;;;;;5372689;26;20000;-77
2024/04/10 08:57:06;;;;;;;10.80;4.40;;;12.10;87.00;;;;;;5380454;26;20000;-76
2024/04/10 08:59:32;;;;;;;10.82;3.80;;;12.00;86.20;;;;;;5380366;26;20012;-76
2024/04/10 09:01:58;;;;;;;11.05;4.28;;;12.00;85.70;;;;;;5381661;26;20454;-77
2024/04/10 09:04:24;;;;;;;10.32;4.43;;;12.10;85.80;;;;;;5381780;26;19992;-76
2024/04/10 09:07:02;;;;;;;4.25;3.85;;;12.10;85.20;;;;;;5379418;26;20015;-76
2024/04/10 09:09:28;;;;;;;7.90;3.97;;;12.10;85.70;;;;;;5381806;26;20008;-76
2024/04/10 09:11:54;;;;;;;6.18;4.28;;;12.10;86.20;;;;;;5364697;26;20074;-76
2024/04/10 09:14:19;;;;;;;11.25;4.47;;;12.20;86.60;;;;;;5352057;26;20436;-76
2024/04/10 09:16:45;;;;;;;7.35;4.18;;;12.20;86.70;;;;;;5379752;26;20028;-76
2024/04/10 09:19:18;;;;;;;9.65;5.25;;;12.10;87.30;;;;;;5381482;26;20000;-76
2024/04/10 09:21:45;;;;;;;9.90;5.43;;;11.90;87.70;;;;;;5331255;26;20435;-76
2024/04/10 09:24:15;;;;;;;9.65;5.30;;;12.00;90.20;;;;;;5350058;26;20018;-76
2024/04/10 09:26:43;;;;;;;8.98;5.30;;;12.00;89.30;;;;;;5369987;26;20428;-77
2024/04/10 09:29:11;;;;;;;15.90;6.13;;;12.20;89.60;;;;;;5381460;26;20469;-76
2024/04/10 09:31:37;;;;;;;9.98;4.93;;;12.20;89.20;;;;;;5378842;26;20011;-76
2024/04/10 09:34:03;;;;;;;14.85;6.75;;;12.20;89.30;;;;;;5346275;26;20009;-77
2024/04/10 09:36:34;;;;;;;9.40;5.28;;;12.20;87.10;;;;;;5346479;26;20016;-76
2024/04/10 09:39:00;;;;;;;7.75;5.20;;;12.20;87.50;;;;;;5344216;26;20001;-76
2024/04/10 09:41:31;;;;;;;12.73;4.60;;;12.20;87.70;;;;;;5346476;26;20029;-76
2024/04/10 09:43:58;;;;;;;8.15;5.18;;;12.30;87.70;;;;;;5345895;26;20521;-77
2024/04/10 09:46:34;;;;;;;8.55;4.50;;;12.40;86.60;;;;;;5344243;26;20001;-76
2024/04/10 09:49:13;;;;;;;10.30;4.20;;;12.50;85.90;;;;;;5347974;26;20015;-77
2024/04/10 09:51:40;;;;;;;8.75;3.85;;;12.50;85.10;;;;;;5376202;26;20001;-76
2024/04/10 09:54:07;;;;;;;7.88;3.72;;;12.40;81.90;;;;;;5344304;26;20023;-76
2024/04/10 09:56:37;;;;;;;6.78;3.50;;;12.40;81.40;;;;;;5355784;26;20077;-77
2024/04/10 09:59:12;;;;;;;10.93;4.03;;;12.60;82.50;;;;;;5408287;26;19992;-76
2024/04/10 10:01:38;;;;;;;10.20;3.55;;;12.70;82.20;;;;;;5379104;26;20011;-76
2024/04/10 10:04:04;;;;;;;10.90;4.10;;;12.70;81.00;;;;;;5380750;26;20505;-76
2024/04/10 10:06:31;;;;;;;9.30;4.03;;;12.80;80.50;;;;;;5355306;26;20001;-76
2024/04/10 10:08:58;;;;;;;13.00;3.97;;;12.90;80.20;;;;;;5352369;26;20005;-76
2024/04/10 10:11:24;;;;;;;3.50;3.20;;;12.80;79.90;;;;;;5343883;26;20005;-76
2024/04/10 10:13:59;;;;;;;9.15;3.10;;;12.60;80.20;;;;;;5377379;26;20346;-77
2024/04/10 10:16:27;;;;;;;5.05;3.05;;;12.60;82.00;;;;;;5347336;26;20082;-76
2024/04/10 10:18:56;;;;;;;4.13;2.95;;;12.60;82.80;;;;;;5345194;26;20015;-76
2024/04/10 10:21:23;;;;;;;5.72;2.97;;;12.50;85.60;;;;;;5345546;26;20001;-76
2024/04/10 10:23:57;;;;;;;4.75;2.70;;;12.40;84.00;;;;;;5360702;26;20015;-76
2024/04/10 10:26:23;;;;;;;7.03;2.83;;;12.60;86.10;;;;;;5407551;26;20008;-76
2024/04/10 10:28:49;;;;;;;7.72;3.17;;;12.70;85.40;;;;;;5380071;26;20015;-76
2024/04/10 10:31:18;;;;;;;7.15;3.00;;;12.80;85.70;;;;;;5378867;26;20074;-76
2024/04/10 10:33:45;;;;;;;10.52;3.67;;;12.90;84.40;;;;;;5344927;26;20005;-77
2024/04/10 10:36:10;;;;;;;5.25;3.25;;;12.90;83.20;;;;;;5344968;26;20001;-76
2024/04/10 10:38:37;;;;;;;4.45;2.65;;;13.10;82.80;;;;;;5349497;26;20020;-76
2024/04/10 10:41:12;;;;;;;3.40;2.95;;;13.10;82.80;;;;;;5345055;26;20003;-76
2024/04/10 10:43:38;;;;;;;5.53;2.72;;;13.10;81.40;;;;;;5408744;26;20011;-77
2024/04/10 10:46:05;;;;;;;5.05;2.72;;;13.10;83.60;;;;;;5411214;26;20478;-76
2024/04/10 10:48:31;;;;;;;4.57;3.47;;;13.10;83.50;;;;;;5381289;26;20023;-76
2024/04/10 10:50:58;;;;;;;7.15;3.28;;;13.10;82.20;;;;;;5366299;26;20001;-76
2024/04/10 10:53:25;;;;;;;4.95;3.00;;;12.90;82.10;;;;;;5321439;26;20040;-77
2024/04/10 10:55:51;;;;;;;6.10;2.72;;;13.10;84.10;;;;;;5346358;26;19997;-76
2024/04/10 10:58:17;;;;;;;5.53;2.85;;;13.00;83.60;;;;;;5346348;26;19997;-76
2024/04/10 11:00:43;;;;;;;7.18;2.92;;;13.00;83.00;;;;;;5347764;26;20001;-76
2024/04/10 11:03:16;;;;;;;4.35;2.40;;;13.00;82.30;;;;;;5367679;26;20089;-76
2024/04/10 11:05:42;;;;;;;4.10;2.83;;;13.00;82.70;;;;;;5383293;26;20038;-76
2024/04/10 11:08:08;;;;;;;11.15;3.90;;;13.10;85.00;;;;;;5353184;26;20086;-76
2024/04/10 11:10:34;;;;;;;6.10;3.08;;;13.00;82.60;;;;;;5346786;26;20009;-76
2024/04/10 11:13:06;;;;;;;4.50;2.90;;;13.10;82.10;;;;;;5344888;26;20009;-76
2024/04/10 11:15:45;;;;;;;6.38;3.70;;;13.10;82.20;;;;;;5351590;26;20001;-76
2024/04/10 11:18:15;;;;;;;5.88;4.15;;;13.10;82.50;;;;;;5376182;26;20016;-76
2024/04/10 11:20:40;;;;;;;6.82;3.95;;;13.00;80.30;;;;;;5379965;26;20399;-76
2024/04/10 11:23:06;;;;;;;10.07;3.83;;;13.00;79.20;;;;;;5366808;26;19997;-76
2024/04/10 11:25:33;;;;;;;11.75;3.95;;;13.00;79.00;;;;;;5360049;26;19996;-76
2024/04/10 11:27:59;;;;;;;6.68;3.85;;;13.10;79.70;;;;;;5360579;26;20014;-76
2024/04/10 11:30:25;;;;;;;5.72;2.53;;;13.30;80.40;;;;;;5368344;26;20019;-76
2024/04/10 11:32:52;;;;;;;4.55;2.70;;;13.30;81.10;;;;;;5353793;26;20005;-76
2024/04/10 11:35:18;;;;;;;3.70;2.40;;;13.20;82.00;;;;;;5345621;26;20036;-76
2024/04/10 11:37:44;;;;;;;6.22;2.85;;;13.20;82.30;;;;;;5374538;26;20311;-75
2024/04/10 11:40:13;;;;;;;4.20;2.83;;;13.20;82.60;;;;;;5383718;26;20004;-76
2024/04/10 11:42:39;;;;;;;5.97;4.22;;;13.10;82.40;;;;;;5390595;26;20036;-75
2024/04/10 11:45:07;;;;;;;5.72;3.10;;;13.00;81.50;;;;;;5399623;26;20008;-76
2024/04/10 11:47:33;;;;;;;7.45;3.10;;;13.10;82.30;;;;;;5393160;26;20005;-76
2024/04/10 11:49:59;;;;;;;4.25;3.10;;;13.10;82.30;;;;;;5390311;26;20019;-76
2024/04/10 11:52:24;;;;;;;7.97;3.20;;;13.10;82.10;;;;;;5388004;26;20004;-75
2024/04/10 11:54:50;;;;;;;5.88;3.00;;;13.10;81.70;;;;;;5382738;26;20328;-76
2024/04/10 11:57:16;;;;;;;9.10;3.35;;;13.00;82.20;;;;;;5400967;26;20004;-76
2024/04/10 11:59:41;;;;;;;5.10;3.30;;;13.10;82.80;;;;;;5396949;26;20399;-77
2024/04/10 12:02:07;;;;;;;5.10;2.80;;;12.80;81.60;;;;;;5379656;26;20066;-75
2024/04/10 12:04:33;;;;;;;6.28;3.08;;;12.70;82.70;;;;;;5382215;26;20350;-76
2024/04/10 12:07:00;;;;;;;4.70;2.83;;;12.70;83.20;;;;;;5382587;26;20037;-76
2024/04/10 12:09:25;;;;;;;5.25;2.70;;;12.70;83.10;;;;;;5382141;26;20079;-76
2024/04/10 12:11:52;;;;;;;8.05;3.00;;;12.70;84.90;;;;;;5395146;26;20407;-76
2024/04/10 12:14:17;;;;;;;5.88;3.50;;;12.80;85.00;;;;;;5387462;26;20008;-76
2024/04/10 12:16:43;;;;;;;9.07;3.42;;;12.80;84.80;;;;;;5389180;26;19995;-76
2024/04/10 12:19:10;;;;;;;5.38;3.30;;;12.60;82.30;;;;;;5396552;26;20411;-76
2024/04/10 12:21:37;;;;;;;5.80;3.00;;;12.60;83.20;;;;;;5389975;26;20003;-77
2024/04/10 12:24:04;;;;;;;6.05;2.90;;;12.70;83.50;;;;;;5384159;26;20469;-76
2024/04/10 12:26:33;;;;;;;6.20;3.17;;;12.80;85.10;;;;;;5372805;26;20473;-76
2024/04/10 12:28:59;;;;;;;9.45;2.90;;;12.70;84.10;;;;;;5379986;26;20012;-77
2024/04/10 12:31:25;;;;;;;5.45;2.92;;;12.70;83.90;;;;;;5375999;26;20000;-76
2024/04/10 12:33:51;;;;;;;8.32;3.25;;;12.70;83.70;;;;;;5374195;26;20367;-76
2024/04/10 12:39:04;;;;;;;4.60;3.15;;;12.40;83.10;;;;;;5375883;26;20015;-74
2024/04/10 12:41:30;;;;;;;8.68;2.95;;;12.40;83.00;;;;;;5375853;26;20035;-75
2024/04/10 12:43:58;;;;;;;8.75;2.88;;;12.40;83.50;;;;;;5375127;26;20063;-75
2024/04/10 12:46:27;;;;;;;5.25;2.42;;;12.40;84.20;;;;;;5378185;26;20045;-75